Time;durP1;ratioP1;P1;durP2;ratioP2;P2;SDS_P1;SDS_P2;PMS_P1;PMS_P2;Temp;Humidity;BMP_temperature;BMP_pressure;BME280_temperature;BME280_humidity;BME280_pressure;Samples;Min_cycle;Max_cycle;Signal;HPM_P1;HPM_P2
2023/06/16 00:01:23;;;;;;;3.85;2.92;;;18.40;92.30;;;;;;4904083;29;21236;-78
2023/06/16 00:03:52;;;;;;;5.85;3.28;;;18.40;92.10;;;;;;4904846;29;20040;-79
2023/06/16 00:06:19;;;;;;;3.70;2.60;;;18.40;92.90;;;;;;4894482;29;20104;-79
2023/06/16 00:08:48;;;;;;;5.63;3.35;;;18.30;92.70;;;;;;4905061;29;22774;-79
2023/06/16 00:11:16;;;;;;;4.82;3.17;;;18.30;92.60;;;;;;4892023;29;20052;-79
2023/06/16 00:13:45;;;;;;;6.15;2.80;;;18.40;92.70;;;;;;4893918;29;20093;-78
2023/06/16 00:16:13;;;;;;;7.50;3.88;;;18.30;92.50;;;;;;4876199;29;20108;-78
2023/06/16 00:18:43;;;;;;;5.78;2.95;;;18.30;92.40;;;;;;4880111;29;20052;-78
2023/06/16 00:21:14;;;;;;;6.35;2.88;;;18.30;92.70;;;;;;4870829;29;20052;-78
2023/06/16 00:23:41;;;;;;;7.18;2.80;;;18.30;93.50;;;;;;4881682;29;20132;-78
2023/06/16 00:26:08;;;;;;;5.30;3.10;;;18.30;93.50;;;;;;4877923;29;20053;-78
2023/06/16 00:28:38;;;;;;;4.30;2.67;;;18.30;93.40;;;;;;4894613;29;20060;-78
2023/06/16 00:31:06;;;;;;;4.25;2.60;;;18.20;92.80;;;;;;4889855;29;20039;-78
2023/06/16 00:33:35;;;;;;;5.82;2.85;;;18.20;93.20;;;;;;4891194;29;20455;-78
2023/06/16 00:36:02;;;;;;;6.07;2.90;;;18.20;93.30;;;;;;4878047;29;20389;-78
2023/06/16 00:38:30;;;;;;;5.45;3.03;;;18.20;93.70;;;;;;4870088;29;20143;-78
2023/06/16 00:40:57;;;;;;;7.72;3.17;;;18.20;94.00;;;;;;4891963;29;20059;-79
2023/06/16 00:43:24;;;;;;;4.32;2.47;;;18.10;93.70;;;;;;4873764;29;20159;-79
2023/06/16 00:45:51;;;;;;;4.18;2.67;;;18.20;93.80;;;;;;4888090;29;20067;-78
2023/06/16 00:48:20;;;;;;;5.32;2.83;;;18.20;94.60;;;;;;4886383;29;20057;-78
2023/06/16 00:50:47;;;;;;;6.60;3.63;;;18.20;94.70;;;;;;4887536;29;20036;-79
2023/06/16 00:53:16;;;;;;;5.45;3.17;;;18.20;94.40;;;;;;4891537;29;20076;-78
2023/06/16 00:55:44;;;;;;;3.60;2.22;;;18.20;94.30;;;;;;4894722;29;20483;-78
2023/06/16 00:58:11;;;;;;;5.97;3.08;;;18.20;94.20;;;;;;4878170;29;20048;-78
2023/06/16 01:00:38;;;;;;;5.15;2.92;;;18.20;94.30;;;;;;4892172;29;20052;-78
2023/06/16 01:03:08;;;;;;;4.60;2.63;;;18.20;94.20;;;;;;4875799;29;20123;-78
2023/06/16 01:05:36;;;;;;;3.33;2.30;;;18.20;93.60;;;;;;4877391;29;21005;-78
2023/06/16 01:08:12;;;;;;;9.80;3.92;;;18.20;93.90;;;;;;4875162;29;20060;-78
2023/06/16 01:10:47;;;;;;;4.55;2.65;;;18.20;93.50;;;;;;4877897;29;20061;-78
2023/06/16 01:13:32;;;;;;;5.68;3.30;;;18.20;93.50;;;;;;4874826;29;20512;-78
2023/06/16 01:16:02;;;;;;;6.20;2.85;;;18.10;92.50;;;;;;4900335;29;20085;-78
2023/06/16 01:18:32;;;;;;;5.40;2.92;;;18.20;92.30;;;;;;4885998;29;22998;-78
2023/06/16 01:21:37;;;;;;;4.60;2.70;;;18.20;92.30;;;;;;4892355;29;20060;-78
2023/06/16 01:24:13;;;;;;;6.47;3.65;;;18.20;92.10;;;;;;4888007;29;20599;-78
2023/06/16 01:26:46;;;;;;;4.28;2.40;;;18.20;92.80;;;;;;4880111;29;20143;-78
2023/06/16 01:29:14;;;;;;;7.50;3.00;;;18.20;92.70;;;;;;4907061;29;20056;-78
2023/06/16 01:31:43;;;;;;;5.80;2.95;;;18.10;92.20;;;;;;4897882;29;20052;-78
2023/06/16 01:34:12;;;;;;;4.93;2.97;;;18.10;91.50;;;;;;4906188;29;20120;-78
2023/06/16 01:36:41;;;;;;;4.82;2.55;;;18.10;91.70;;;;;;4904693;29;20128;-78
2023/06/16 01:39:10;;;;;;;4.40;2.40;;;18.10;91.80;;;;;;4900972;29;20056;-78
2023/06/16 01:41:38;;;;;;;5.63;3.10;;;18.20;92.30;;;;;;4889133;29;20092;-78
2023/06/16 01:44:06;;;;;;;5.13;2.83;;;18.20;92.00;;;;;;4902849;29;20048;-77
2023/06/16 01:46:34;;;;;;;3.72;2.55;;;18.10;91.50;;;;;;4901250;29;20103;-78
2023/06/16 01:49:03;;;;;;;4.70;2.45;;;18.10;91.80;;;;;;4891786;29;20052;-78
2023/06/16 01:51:31;;;;;;;4.57;2.83;;;18.10;91.70;;;;;;4876574;29;20931;-78
2023/06/16 01:53:59;;;;;;;5.30;3.08;;;18.10;91.80;;;;;;4881760;29;20052;-78
2023/06/16 01:56:29;;;;;;;5.97;2.97;;;18.10;92.00;;;;;;4900862;29;20055;-78
2023/06/16 01:58:56;;;;;;;5.40;3.17;;;18.00;92.00;;;;;;4887493;29;20428;-78
2023/06/16 02:01:49;;;;;;;5.75;3.10;;;17.90;92.00;;;;;;4887331;29;20079;-78
2023/06/16 02:04:22;;;;;;;7.53;3.90;;;17.90;92.10;;;;;;4874172;29;20061;-78
2023/06/16 02:07:07;;;;;;;7.25;2.58;;;18.00;92.10;;;;;;4888244;29;20049;-78
2023/06/16 02:09:38;;;;;;;6.53;3.30;;;18.00;92.20;;;;;;4898407;29;20040;-78
2023/06/16 02:12:11;;;;;;;10.52;3.30;;;18.00;92.10;;;;;;4882509;29;20057;-78
2023/06/16 02:14:40;;;;;;;6.30;3.10;;;18.00;92.10;;;;;;4890695;29;20064;-78
2023/06/16 02:17:12;;;;;;;6.20;2.92;;;17.90;92.30;;;;;;4891866;29;20099;-78
2023/06/16 02:19:40;;;;;;;5.82;3.20;;;17.80;92.20;;;;;;4876887;29;20067;-78
2023/06/16 02:22:07;;;;;;;5.25;3.40;;;17.90;92.30;;;;;;4894429;29;20053;-78
2023/06/16 02:24:35;;;;;;;4.80;2.58;;;17.80;92.10;;;;;;4889053;29;20053;-78
2023/06/16 02:27:04;;;;;;;4.07;2.83;;;17.90;92.00;;;;;;4872220;29;20036;-78
2023/06/16 02:29:31;;;;;;;3.83;2.80;;;17.90;91.90;;;;;;4888282;29;20036;-78
2023/06/16 02:31:58;;;;;;;4.30;2.78;;;17.90;92.10;;;;;;4883436;29;20132;-78
2023/06/16 02:34:25;;;;;;;4.30;2.60;;;18.00;92.00;;;;;;4890493;29;20056;-79
2023/06/16 02:36:52;;;;;;;4.88;2.80;;;18.00;92.30;;;;;;4871366;29;20054;-78
2023/06/16 02:39:21;;;;;;;3.78;2.70;;;18.00;92.10;;;;;;4871733;29;20052;-78
2023/06/16 02:41:49;;;;;;;5.78;2.63;;;18.00;92.00;;;;;;4898461;29;20052;-79
2023/06/16 02:44:18;;;;;;;3.55;2.15;;;18.00;91.70;;;;;;4891867;29;20036;-79
2023/06/16 02:46:45;;;;;;;7.00;2.70;;;18.00;91.70;;;;;;4896536;29;22486;-78
2023/06/16 02:49:12;;;;;;;4.65;2.80;;;18.00;92.00;;;;;;4898527;29;20074;-78
2023/06/16 02:51:40;;;;;;;10.32;3.67;;;17.90;91.80;;;;;;4902456;29;20036;-79
2023/06/16 02:54:09;;;;;;;4.40;2.55;;;17.90;91.90;;;;;;4892362;29;20040;-79
2023/06/16 02:56:36;;;;;;;6.55;3.20;;;17.80;91.80;;;;;;4889615;29;20048;-79
2023/06/16 02:59:03;;;;;;;4.70;2.80;;;17.90;91.90;;;;;;4885058;29;20131;-78
2023/06/16 03:01:32;;;;;;;5.75;2.90;;;17.90;91.80;;;;;;4890343;29;20064;-78
2023/06/16 03:04:22;;;;;;;4.05;2.30;;;17.90;91.70;;;;;;4896609;29;20048;-79
2023/06/16 03:07:04;;;;;;;5.22;2.65;;;18.00;91.60;;;;;;4885968;29;20393;-79
2023/06/16 03:09:37;;;;;;;7.40;2.75;;;18.00;91.70;;;;;;4882737;29;20051;-78
2023/06/16 03:12:07;;;;;;;4.32;2.78;;;18.00;91.50;;;;;;4884397;29;20056;-79
2023/06/16 03:14:39;;;;;;;5.75;3.20;;;17.90;91.50;;;;;;4884209;29;20052;-78
2023/06/16 03:17:13;;;;;;;4.80;2.88;;;17.90;91.50;;;;;;4884680;29;20052;-78
2023/06/16 03:19:42;;;;;;;5.35;2.33;;;17.90;91.50;;;;;;4876127;29;20079;-78
2023/06/16 03:22:10;;;;;;;4.85;2.70;;;17.90;91.70;;;;;;4886855;29;20092;-78
2023/06/16 03:24:46;;;;;;;7.38;2.95;;;17.80;91.80;;;;;;4894020;29;20037;-79
2023/06/16 03:27:15;;;;;;;;;;;17.90;91.80;;;;;;4889823;29;20512;-78
2023/06/16 03:29:57;;;;;;;5.53;2.80;;;17.90;91.70;;;;;;4890809;29;19923;-78
2023/06/16 03:32:27;;;;;;;6.07;2.65;;;17.80;91.70;;;;;;4889678;29;20088;-78
2023/06/16 03:34:55;;;;;;;5.25;2.60;;;17.80;92.00;;;;;;4887043;29;20497;-78
2023/06/16 03:37:22;;;;;;;4.75;2.58;;;17.80;92.00;;;;;;4900432;29;20057;-78
2023/06/16 03:39:50;;;;;;;3.88;2.70;;;17.80;91.90;;;;;;4886768;29;20071;-78
2023/06/16 03:42:17;;;;;;;4.60;2.78;;;17.80;92.00;;;;;;4880564;29;20060;-78
2023/06/16 03:44:46;;;;;;;3.92;2.97;;;17.80;91.90;;;;;;4880874;29;20048;-79
2023/06/16 03:47:13;;;;;;;4.57;2.65;;;17.70;92.10;;;;;;4896296;29;20041;-78
2023/06/16 03:49:41;;;;;;;4.82;2.92;;;17.80;92.00;;;;;;4877012;29;20143;-78
2023/06/16 03:52:08;;;;;;;4.95;2.63;;;17.60;92.10;;;;;;4889620;29;20519;-79
2023/06/16 03:54:36;;;;;;;5.03;2.95;;;17.70;92.50;;;;;;4889332;29;20059;-78
2023/06/16 03:57:04;;;;;;;5.40;2.83;;;17.60;92.40;;;;;;4888400;29;20048;-78
2023/06/16 03:59:31;;;;;;;6.03;3.00;;;17.70;92.50;;;;;;4892546;29;21078;-78
2023/06/16 04:02:06;;;;;;;5.25;3.10;;;17.80;92.40;;;;;;4874151;29;20650;-79
2023/06/16 04:04:35;;;;;;;4.55;2.88;;;17.80;92.20;;;;;;4899616;29;20132;-78
2023/06/16 04:07:05;;;;;;;5.60;2.80;;;17.90;92.20;;;;;;4899120;29;20083;-78
2023/06/16 04:09:32;;;;;;;4.53;2.97;;;17.90;92.10;;;;;;4888564;29;20501;-78
2023/06/16 04:11:59;;;;;;;4.65;3.13;;;17.90;92.20;;;;;;4883784;29;20127;-78
2023/06/16 04:14:26;;;;;;;3.80;2.65;;;17.80;92.10;;;;;;4886504;29;20139;-78
2023/06/16 04:16:54;;;;;;;6.55;3.10;;;17.90;92.30;;;;;;4890520;29;20071;-78
2023/06/16 04:19:22;;;;;;;9.23;3.47;;;17.80;92.40;;;;;;4892305;29;20108;-78
2023/06/16 04:21:49;;;;;;;5.15;2.95;;;17.80;92.50;;;;;;4872013;29;20515;-79
2023/06/16 04:24:18;;;;;;;5.80;2.80;;;17.90;92.60;;;;;;4892128;29;20448;-78
2023/06/16 04:26:48;;;;;;;4.65;2.80;;;17.90;92.40;;;;;;4874632;29;20140;-78
2023/06/16 04:29:17;;;;;;;4.68;2.83;;;17.80;92.60;;;;;;4887748;29;21042;-79
2023/06/16 04:31:48;;;;;;;4.95;3.20;;;17.80;92.90;;;;;;4872460;29;20519;-78
2023/06/16 04:34:16;;;;;;;5.38;3.30;;;17.80;92.90;;;;;;4872685;29;22771;-78
2023/06/16 04:36:44;;;;;;;5.40;2.92;;;17.90;92.90;;;;;;4874671;29;20052;-78
2023/06/16 04:39:29;;;;;;;5.82;3.50;;;17.90;93.00;;;;;;4889186;29;20048;-78
2023/06/16 04:41:57;;;;;;;5.72;3.40;;;17.90;93.00;;;;;;4900783;29;20079;-79
2023/06/16 04:44:27;;;;;;;5.60;3.40;;;17.90;93.30;;;;;;4891582;29;20052;-78
2023/06/16 04:46:56;;;;;;;7.90;3.55;;;17.90;93.10;;;;;;4889209;29;20055;-78
2023/06/16 04:49:24;;;;;;;4.70;3.55;;;18.00;93.10;;;;;;4894806;29;20615;-79
2023/06/16 04:51:51;;;;;;;5.05;2.83;;;18.00;92.90;;;;;;4892524;29;20055;-78
2023/06/16 04:54:20;;;;;;;5.63;3.25;;;18.00;93.00;;;;;;4879377;29;20140;-79
2023/06/16 04:56:47;;;;;;;5.47;3.58;;;18.00;93.00;;;;;;4907245;29;20045;-79
2023/06/16 04:59:14;;;;;;;5.22;3.03;;;18.10;93.00;;;;;;4905223;29;20099;-79
2023/06/16 05:01:41;;;;;;;8.70;3.67;;;18.20;92.80;;;;;;4899505;29;20135;-79
2023/06/16 05:04:08;;;;;;;8.07;3.22;;;18.20;92.80;;;;;;4904408;29;20040;-79
2023/06/16 05:06:39;;;;;;;6.45;3.20;;;18.30;92.70;;;;;;4893841;29;20146;-79
2023/06/16 05:09:06;;;;;;;5.72;3.05;;;18.30;92.40;;;;;;4888583;29;20492;-78
2023/06/16 05:11:33;;;;;;;4.07;2.85;;;18.30;92.50;;;;;;4879538;29;20409;-78
2023/06/16 05:14:01;;;;;;;6.03;3.75;;;18.40;92.80;;;;;;4889154;29;20107;-79
2023/06/16 05:16:29;;;;;;;6.32;3.33;;;18.50;92.60;;;;;;4890310;29;20057;-79
2023/06/16 05:18:58;;;;;;;5.95;3.42;;;18.50;92.30;;;;;;4885871;29;20164;-78
2023/06/16 05:21:27;;;;;;;8.15;3.20;;;18.60;92.40;;;;;;4902551;29;20099;-79
2023/06/16 05:23:57;;;;;;;6.68;2.97;;;18.60;92.30;;;;;;4891328;29;20056;-78
2023/06/16 05:26:25;;;;;;;7.50;3.47;;;18.50;92.20;;;;;;4894921;29;20055;-78
2023/06/16 05:28:52;;;;;;;5.60;3.20;;;18.60;92.40;;;;;;4888853;29;20712;-78
2023/06/16 05:31:22;;;;;;;4.28;3.30;;;18.70;92.80;;;;;;4901440;29;20053;-78
2023/06/16 05:33:50;;;;;;;4.55;2.55;;;18.70;92.00;;;;;;4903117;29;20052;-78
2023/06/16 05:36:17;;;;;;;4.63;2.70;;;18.70;92.00;;;;;;4882288;29;20500;-78
2023/06/16 05:38:45;;;;;;;5.32;2.72;;;18.70;91.80;;;;;;4877947;29;20051;-78
2023/06/16 05:41:12;;;;;;;4.10;3.00;;;18.70;92.10;;;;;;4892314;29;20104;-78
2023/06/16 05:43:43;;;;;;;4.60;2.58;;;18.70;91.80;;;;;;4882599;29;20048;-79
2023/06/16 05:46:11;;;;;;;4.40;2.83;;;18.70;91.90;;;;;;4882443;29;20440;-79
2023/06/16 05:48:38;;;;;;;3.80;2.92;;;18.70;92.00;;;;;;4889123;29;20108;-78
2023/06/16 05:51:09;;;;;;;4.57;2.88;;;18.70;92.10;;;;;;4900538;29;20135;-79
2023/06/16 05:53:36;;;;;;;5.47;3.38;;;18.70;91.70;;;;;;4880105;29;20063;-79
2023/06/16 05:56:04;;;;;;;4.70;2.80;;;18.80;91.80;;;;;;4850494;29;20517;-79
2023/06/16 05:58:35;;;;;;;8.25;2.88;;;18.70;91.60;;;;;;4851721;29;20233;-79
2023/06/16 06:01:04;;;;;;;6.60;2.88;;;18.80;91.80;;;;;;4853763;29;20785;-79
2023/06/16 06:03:32;;;;;;;5.20;2.90;;;18.80;92.00;;;;;;4876038;29;20544;-79
2023/06/16 06:06:01;;;;;;;6.78;3.00;;;18.90;92.00;;;;;;4865773;29;22807;-78
2023/06/16 06:08:29;;;;;;;5.05;3.40;;;19.00;92.30;;;;;;4850079;29;20071;-78
2023/06/16 06:11:01;;;;;;;4.57;2.80;;;19.00;92.00;;;;;;4878917;29;20048;-78
2023/06/16 06:13:29;;;;;;;4.72;3.25;;;19.00;91.80;;;;;;4881184;29;20147;-79
2023/06/16 06:15:58;;;;;;;6.18;3.05;;;19.00;91.80;;;;;;4867712;29;20040;-78
2023/06/16 06:18:25;;;;;;;6.43;3.05;;;19.00;91.70;;;;;;4866690;29;21191;-78
2023/06/16 06:20:52;;;;;;;6.25;2.70;;;19.00;91.90;;;;;;4877102;29;20064;-79
2023/06/16 06:23:21;;;;;;;4.53;2.55;;;19.00;91.80;;;;;;4850272;29;20044;-79
2023/06/16 06:25:48;;;;;;;5.47;3.30;;;19.10;91.80;;;;;;4860753;29;20406;-78
2023/06/16 06:28:19;;;;;;;6.40;2.92;;;19.20;91.90;;;;;;4862563;29;20052;-79
2023/06/16 06:30:47;;;;;;;4.28;2.78;;;19.20;91.90;;;;;;4863506;29;20053;-79
2023/06/16 06:33:14;;;;;;;5.70;3.28;;;19.20;91.90;;;;;;4854797;29;20264;-79
2023/06/16 06:35:41;;;;;;;4.55;2.85;;;19.20;91.80;;;;;;4846756;29;20056;-79
2023/06/16 06:38:08;;;;;;;4.90;3.10;;;19.20;91.90;;;;;;4848504;29;20074;-79
2023/06/16 06:40:36;;;;;;;5.70;3.22;;;19.30;92.20;;;;;;4847739;29;20501;-79
2023/06/16 06:43:05;;;;;;;4.13;2.72;;;19.40;92.30;;;;;;4851883;29;20053;-79
2023/06/16 06:45:49;;;;;;;5.53;3.13;;;19.40;92.20;;;;;;4861007;29;20142;-79
2023/06/16 06:48:18;;;;;;;7.03;3.50;;;19.50;92.40;;;;;;4849798;29;20075;-79
2023/06/16 06:50:49;;;;;;;5.35;3.00;;;19.50;91.90;;;;;;4853963;29;22077;-79
2023/06/16 06:53:16;;;;;;;5.78;2.95;;;19.50;91.70;;;;;;4859762;29;20051;-79
2023/06/16 06:55:45;;;;;;;4.40;3.10;;;19.50;91.80;;;;;;4856134;29;20560;-79
2023/06/16 06:58:13;;;;;;;7.30;2.80;;;19.70;92.00;;;;;;4860229;29;20143;-79
2023/06/16 07:00:40;;;;;;;4.78;3.22;;;19.80;91.70;;;;;;4847751;29;20044;-79
2023/06/16 07:03:07;;;;;;;5.70;3.00;;;19.80;91.40;;;;;;4854889;29;20087;-79
2023/06/16 07:05:34;;;;;;;5.13;2.80;;;19.80;91.30;;;;;;4876373;29;20044;-79
2023/06/16 07:08:02;;;;;;;4.82;2.53;;;19.90;91.20;;;;;;4853250;29;20057;-79
2023/06/16 07:10:32;;;;;;;6.18;3.05;;;20.00;91.10;;;;;;4853738;29;20040;-79
2023/06/16 07:12:59;;;;;;;5.03;2.80;;;20.00;90.30;;;;;;4846438;29;20075;-79
2023/06/16 07:15:26;;;;;;;5.68;3.00;;;20.10;90.00;;;;;;4860758;29;20084;-79
2023/06/16 07:17:54;;;;;;;5.50;2.53;;;20.10;90.00;;;;;;4864661;29;20080;-79
2023/06/16 07:20:21;;;;;;;4.72;3.05;;;20.10;89.70;;;;;;4852648;29;20044;-79
2023/06/16 07:22:48;;;;;;;5.10;2.60;;;20.20;90.00;;;;;;4863018;29;20103;-79
2023/06/16 07:25:16;;;;;;;4.55;2.78;;;20.20;88.20;;;;;;4849178;29;20227;-79
2023/06/16 07:27:43;;;;;;;4.18;2.70;;;20.20;87.50;;;;;;4854337;29;20147;-79
2023/06/16 07:30:11;;;;;;;4.45;2.85;;;20.30;88.50;;;;;;4847621;29;20049;-79
2023/06/16 07:32:41;;;;;;;5.55;3.25;;;20.40;89.10;;;;;;4860254;29;20048;-79
2023/06/16 07:35:08;;;;;;;5.65;2.85;;;20.40;87.40;;;;;;4860043;29;20062;-79
2023/06/16 07:37:35;;;;;;;5.93;3.03;;;20.40;87.90;;;;;;4855628;29;20055;-79
2023/06/16 07:40:07;;;;;;;4.00;2.38;;;20.50;88.90;;;;;;4859384;29;20731;-79
2023/06/16 07:42:34;;;;;;;5.20;2.88;;;20.50;88.10;;;;;;4863711;29;20060;-77
2023/06/16 07:45:02;;;;;;;6.68;2.65;;;20.50;88.20;;;;;;4864408;29;20063;-77
2023/06/16 07:47:29;;;;;;;5.20;2.65;;;20.50;88.30;;;;;;4845040;29;20056;-77
2023/06/16 07:49:56;;;;;;;3.97;2.90;;;20.50;87.10;;;;;;4863444;29;20835;-78
2023/06/16 07:52:23;;;;;;;4.57;2.83;;;20.50;85.90;;;;;;4857138;29;20421;-79
2023/06/16 07:54:50;;;;;;;5.13;2.78;;;20.50;85.20;;;;;;4845808;29;20512;-77
2023/06/16 07:57:17;;;;;;;4.85;2.60;;;20.60;84.90;;;;;;4835175;29;20079;-79
2023/06/16 07:59:44;;;;;;;3.50;2.47;;;20.60;85.70;;;;;;4848135;29;20692;-78
2023/06/16 08:02:11;;;;;;;9.73;3.88;;;20.70;85.70;;;;;;4853096;29;20500;-79
2023/06/16 08:04:38;;;;;;;7.15;3.65;;;20.70;84.80;;;;;;4855487;29;20472;-79
2023/06/16 08:07:06;;;;;;;6.10;2.70;;;20.70;86.50;;;;;;4832310;29;20052;-77
2023/06/16 08:09:33;;;;;;;8.18;3.78;;;20.80;85.70;;;;;;4838561;29;20088;-79
2023/06/16 08:12:01;;;;;;;4.30;2.53;;;20.80;84.40;;;;;;4837196;29;20056;-78
2023/06/16 08:14:30;;;;;;;3.88;2.80;;;20.80;84.40;;;;;;4865875;29;20059;-79
2023/06/16 08:16:58;;;;;;;5.25;2.53;;;20.90;84.20;;;;;;4849066;29;20147;-77
2023/06/16 08:19:25;;;;;;;4.65;3.05;;;21.00;84.40;;;;;;4866646;29;20048;-78
2023/06/16 08:21:52;;;;;;;8.45;3.50;;;21.10;85.10;;;;;;4852536;29;20103;-78
2023/06/16 08:24:19;;;;;;;5.55;2.70;;;21.20;85.50;;;;;;4863163;29;20441;-79
2023/06/16 08:26:47;;;;;;;5.25;2.80;;;21.20;84.70;;;;;;4865583;29;20108;-78
2023/06/16 08:29:14;;;;;;;4.07;2.67;;;21.20;83.60;;;;;;4849392;29;20055;-78
2023/06/16 08:31:41;;;;;;;5.43;2.95;;;21.30;83.60;;;;;;4863521;29;20048;-78
2023/06/16 08:34:08;;;;;;;4.60;3.15;;;21.30;83.00;;;;;;4833931;29;20054;-78
2023/06/16 08:36:36;;;;;;;6.07;3.03;;;21.40;82.40;;;;;;4862924;29;20056;-77
2023/06/16 08:39:05;;;;;;;6.95;2.92;;;21.50;83.10;;;;;;4866960;29;20059;-78
2023/06/16 08:41:36;;;;;;;4.05;2.90;;;21.40;82.50;;;;;;4856027;29;20151;-79
2023/06/16 08:44:05;;;;;;;5.70;3.70;;;21.50;83.80;;;;;;4864798;29;20178;-78
2023/06/16 08:46:32;;;;;;;7.03;3.67;;;21.50;83.10;;;;;;4860950;29;20216;-79
2023/06/16 08:48:59;;;;;;;4.93;3.00;;;21.60;84.30;;;;;;4837844;29;20049;-78
2023/06/16 08:51:27;;;;;;;3.88;2.67;;;21.60;83.60;;;;;;4845717;29;20048;-79
2023/06/16 08:54:00;;;;;;;4.88;3.28;;;21.70;83.70;;;;;;4837848;29;20450;-78
2023/06/16 08:56:31;;;;;;;5.10;2.97;;;21.70;83.60;;;;;;4846423;29;20059;-77
2023/06/16 08:59:03;;;;;;;6.38;3.28;;;21.70;82.70;;;;;;4893008;29;20095;-76
2023/06/16 09:01:33;;;;;;;5.18;3.15;;;21.60;81.80;;;;;;4867362;29;20840;-79
2023/06/16 09:04:01;;;;;;;4.43;3.03;;;21.60;82.40;;;;;;4840578;29;20126;-78
2023/06/16 09:06:29;;;;;;;6.18;2.83;;;21.70;81.20;;;;;;4840493;29;21092;-79
2023/06/16 09:08:56;;;;;;;4.13;2.85;;;21.70;81.00;;;;;;4878413;29;20057;-79
2023/06/16 09:11:24;;;;;;;4.25;2.72;;;21.90;81.10;;;;;;4853604;29;20072;-79
2023/06/16 09:13:52;;;;;;;4.57;2.90;;;21.90;80.40;;;;;;4837221;29;20139;-78
2023/06/16 09:16:23;;;;;;;3.75;2.92;;;21.90;79.90;;;;;;4833389;29;20072;-78
2023/06/16 09:18:50;;;;;;;5.85;3.38;;;22.00;81.20;;;;;;4864975;29;20080;-78
2023/06/16 09:21:23;;;;;;;4.90;2.88;;;22.10;81.50;;;;;;4866789;29;20056;-78
2023/06/16 09:23:57;;;;;;;7.00;3.15;;;22.10;79.70;;;;;;4858921;29;20060;-77
2023/06/16 09:26:29;;;;;;;5.22;3.42;;;22.10;79.40;;;;;;4873646;29;20040;-77
2023/06/16 09:28:57;;;;;;;4.85;2.92;;;22.10;78.70;;;;;;4867941;29;20044;-78
2023/06/16 09:31:27;;;;;;;4.03;2.75;;;22.10;78.40;;;;;;4858624;29;20087;-78
2023/06/16 09:34:05;;;;;;;6.18;3.28;;;22.20;78.50;;;;;;4851660;29;20052;-77
2023/06/16 09:36:32;;;;;;;5.43;3.15;;;22.20;76.50;;;;;;4866094;29;20597;-77
2023/06/16 09:38:59;;;;;;;6.78;2.85;;;22.10;77.70;;;;;;4866907;29;20631;-77
2023/06/16 09:41:26;;;;;;;5.05;2.80;;;22.20;78.10;;;;;;4857982;29;20143;-78
2023/06/16 09:43:58;;;;;;;3.70;3.10;;;22.20;78.50;;;;;;4870689;29;20086;-77
2023/06/16 09:46:26;;;;;;;4.00;2.88;;;22.20;78.10;;;;;;4839105;29;20051;-77
2023/06/16 09:48:53;;;;;;;4.43;3.22;;;22.30;78.20;;;;;;4863503;29;20310;-79
2023/06/16 09:51:22;;;;;;;4.35;2.83;;;22.40;78.50;;;;;;4876613;29;20409;-77
2023/06/16 09:53:51;;;;;;;4.68;3.10;;;22.40;78.80;;;;;;4863392;29;20453;-77
2023/06/16 09:56:19;;;;;;;6.40;3.28;;;22.60;77.80;;;;;;4854162;29;21279;-76
2023/06/16 09:58:47;;;;;;;5.97;3.30;;;22.60;78.60;;;;;;4869144;29;20196;-77
2023/06/16 10:01:17;;;;;;;5.28;3.35;;;22.60;78.60;;;;;;4848708;29;20048;-78
2023/06/16 10:03:48;;;;;;;5.88;3.42;;;22.60;78.00;;;;;;4855968;29;20057;-78
2023/06/16 10:06:20;;;;;;;6.05;3.30;;;22.80;78.50;;;;;;4848908;29;20044;-77
2023/06/16 10:08:48;;;;;;;7.13;3.25;;;22.80;77.10;;;;;;4863488;29;20500;-79
2023/06/16 10:11:17;;;;;;;6.20;3.53;;;22.80;77.70;;;;;;4864716;29;20131;-77
2023/06/16 10:13:58;;;;;;;3.88;3.05;;;22.90;77.80;;;;;;4846432;29;22673;-78
2023/06/16 10:16:29;;;;;;;3.88;2.80;;;22.80;75.50;;;;;;4857966;29;20441;-79
2023/06/16 10:19:00;;;;;;;4.35;2.85;;;22.70;73.80;;;;;;4856622;29;20076;-78
2023/06/16 10:21:28;;;;;;;5.65;2.72;;;22.60;73.70;;;;;;4854192;29;20067;-78
2023/06/16 10:23:55;;;;;;;5.47;3.38;;;22.70;73.70;;;;;;4844719;29;21279;-78
2023/06/16 10:26:23;;;;;;;5.32;3.08;;;22.90;74.50;;;;;;4863711;29;21323;-77
2023/06/16 10:28:51;;;;;;;3.83;2.80;;;23.00;76.80;;;;;;4839036;29;20424;-77
2023/06/16 10:31:20;;;;;;;4.95;2.53;;;22.90;72.70;;;;;;4854070;29;20103;-77
2023/06/16 10:33:58;;;;;;;4.13;2.80;;;22.90;71.20;;;;;;4876206;29;21053;-78
2023/06/16 10:36:36;;;;;;;4.88;2.88;;;23.10;72.00;;;;;;4856052;29;20063;-77
2023/06/16 10:39:15;;;;;;;5.53;3.03;;;23.20;72.60;;;;;;4858583;29;20064;-77
2023/06/16 10:42:11;;;;;;;3.33;2.53;;;23.20;73.60;;;;;;4867734;29;20050;-79
2023/06/16 10:44:40;;;;;;;5.28;2.63;;;23.30;71.40;;;;;;4870320;29;20452;-78
2023/06/16 10:47:10;;;;;;;3.40;2.35;;;23.60;72.40;;;;;;4846019;29;20518;-78
2023/06/16 10:49:52;;;;;;;4.03;2.67;;;23.60;70.80;;;;;;4835617;29;20204;-77
2023/06/16 10:52:28;;;;;;;5.93;3.10;;;23.50;71.30;;;;;;4851154;29;20079;-77
2023/06/16 10:54:56;;;;;;;4.43;2.50;;;23.60;71.40;;;;;;4851016;29;20059;-77
2023/06/16 10:57:25;;;;;;;3.65;2.42;;;23.80;70.00;;;;;;4867339;29;20775;-76
2023/06/16 11:00:14;;;;;;;4.35;3.03;;;23.80;70.10;;;;;;4858224;29;20083;-78
2023/06/16 11:02:49;;;;;;;4.55;3.03;;;23.90;70.40;;;;;;4873213;29;20052;-78
2023/06/16 11:05:22;;;;;;;5.53;2.60;;;23.90;70.40;;;;;;4849981;29;20052;-78
2023/06/16 11:08:05;;;;;;;4.38;3.10;;;24.00;70.20;;;;;;4848512;29;20103;-78
2023/06/16 11:10:51;;;;;;;3.58;2.47;;;24.10;69.70;;;;;;4850008;29;20048;-78
2023/06/16 11:13:23;;;;;;;5.63;2.95;;;24.20;69.80;;;;;;4851244;29;20840;-77
2023/06/16 11:15:53;;;;;;;3.88;2.88;;;24.40;72.10;;;;;;4855845;29;20087;-78
2023/06/16 11:18:25;;;;;;;4.07;3.00;;;24.40;70.30;;;;;;4853964;29;20169;-79
2023/06/16 11:21:00;;;;;;;4.60;2.70;;;24.40;66.90;;;;;;4837020;29;22439;-78
2023/06/16 11:23:28;;;;;;;5.45;2.80;;;24.40;67.80;;;;;;4849750;29;20214;-78
2023/06/16 11:26:09;;;;;;;5.47;3.00;;;24.50;67.50;;;;;;4865032;29;20275;-78
2023/06/16 11:28:40;;;;;;;4.07;2.95;;;24.60;69.10;;;;;;4867354;29;20048;-78
2023/06/16 11:31:12;;;;;;;3.45;2.70;;;24.70;68.50;;;;;;4839084;29;20067;-78
2023/06/16 11:33:41;;;;;;;3.25;2.30;;;24.70;66.10;;;;;;4855822;29;20055;-78
2023/06/16 11:36:21;;;;;;;4.15;2.80;;;24.50;64.10;;;;;;4833653;29;20389;-78
2023/06/16 11:38:55;;;;;;;5.72;2.70;;;24.30;62.70;;;;;;4855705;29;20064;-77
2023/06/16 11:41:28;;;;;;;3.33;2.00;;;24.30;63.50;;;;;;4852460;29;20053;-78
2023/06/16 11:43:55;;;;;;;2.75;1.92;;;24.20;62.00;;;;;;4854304;29;20055;-77
2023/06/16 11:46:25;;;;;;;3.63;2.60;;;24.20;63.00;;;;;;4865927;29;20048;-76
2023/06/16 11:48:54;;;;;;;3.78;2.10;;;24.20;63.70;;;;;;4874419;29;20249;-77
2023/06/16 11:51:23;;;;;;;3.28;2.28;;;24.30;63.60;;;;;;4854361;29;20643;-77
2023/06/16 11:53:51;;;;;;;3.88;2.55;;;24.30;64.00;;;;;;4871851;29;20041;-77
2023/06/16 11:56:18;;;;;;;3.38;2.17;;;24.50;64.60;;;;;;4874626;29;20554;-79
2023/06/16 11:58:48;;;;;;;3.80;2.40;;;24.60;63.70;;;;;;4855094;29;20095;-76
2023/06/16 12:01:16;;;;;;;4.60;2.30;;;24.50;63.30;;;;;;4860763;29;20063;-77
2023/06/16 12:03:45;;;;;;;3.35;2.38;;;24.50;64.30;;;;;;4829176;29;20056;-76
2023/06/16 12:06:33;;;;;;;2.70;2.10;;;24.40;63.00;;;;;;4860600;29;20511;-78
2023/06/16 12:09:02;;;;;;;4.20;2.25;;;24.40;63.40;;;;;;4830497;29;20729;-76
2023/06/16 12:11:30;;;;;;;3.83;2.38;;;24.30;63.50;;;;;;4861961;29;20107;-77
2023/06/16 12:14:00;;;;;;;3.20;2.10;;;24.30;64.80;;;;;;4875932;29;20607;-76
2023/06/16 12:16:27;;;;;;;3.30;1.98;;;24.20;64.00;;;;;;4846561;29;20086;-76
2023/06/16 12:18:56;;;;;;;4.13;2.00;;;24.20;65.00;;;;;;4845130;29;20052;-78
2023/06/16 12:21:26;;;;;;;2.63;2.10;;;24.20;65.10;;;;;;4837549;29;20646;-79
2023/06/16 12:23:55;;;;;;;3.90;2.13;;;24.10;64.90;;;;;;4858750;29;22903;-77
2023/06/16 12:26:33;;;;;;;4.13;2.72;;;24.00;65.50;;;;;;4861271;29;20063;-77
2023/06/16 12:29:08;;;;;;;4.20;2.80;;;24.00;68.20;;;;;;4860624;29;20041;-77
2023/06/16 12:31:35;;;;;;;4.03;2.60;;;24.00;68.80;;;;;;4864223;29;20124;-76
2023/06/16 12:34:02;;;;;;;3.92;2.97;;;24.00;69.80;;;;;;4858272;29;20522;-78
2023/06/16 12:36:29;;;;;;;5.10;3.28;;;24.20;69.50;;;;;;4861880;29;20055;-77
2023/06/16 12:38:58;;;;;;;4.15;2.83;;;24.40;69.30;;;;;;4860856;29;20524;-78
2023/06/16 12:41:27;;;;;;;3.40;2.72;;;24.60;68.40;;;;;;4849680;29;20171;-77
2023/06/16 12:43:55;;;;;;;3.53;2.53;;;24.80;67.30;;;;;;4864012;29;20048;-77
2023/06/16 12:46:22;;;;;;;3.30;2.30;;;24.60;65.60;;;;;;4868894;29;20053;-79
2023/06/16 12:48:49;;;;;;;2.85;2.33;;;24.60;65.60;;;;;;4863155;29;20051;-77
2023/06/16 12:51:17;;;;;;;5.20;3.00;;;24.70;66.40;;;;;;4869874;29;20051;-81
2023/06/16 12:53:46;;;;;;;3.05;2.50;;;24.90;65.70;;;;;;4843303;29;20040;-78
2023/06/16 12:56:14;;;;;;;5.90;2.58;;;24.80;64.50;;;;;;4838127;29;20188;-78
2023/06/16 12:58:42;;;;;;;4.78;2.60;;;24.90;64.90;;;;;;4878507;29;21957;-77
2023/06/16 13:01:12;;;;;;;4.28;2.20;;;25.00;64.40;;;;;;4861626;29;20052;-77